Terminal Aerodrome Forecast
Issued by NWS Charleston, SC

Home | Current Version | Previous Version | Text Only | Print | Product List | Glossary On
Versions: 1 2 3 4 5 6 7 8 9 10 11 12 13
345
FTUS42 KCHS 282051 AAA
TAFSAV
TAF AMD
KSAV 282051Z 2821/2918 06012KT P6SM SCT025 BKN060
     FM290000 36007KT P6SM SCT030 BKN250
     FM290600 33010KT P6SM SCT015 OVC035
     FM291200 33011G19KT P6SM SCT015 BKN035=

USA.gov is the U.S. government's official web portal to all federal, state and local government web resources and services.